createdAt,value
2022-09-02T04:00:32.981Z,18.60
2022-09-02T04:05:32.938Z,18.78
2022-09-02T04:10:32.863Z,18.87
2022-09-02T04:15:32.836Z,18.86
2022-09-02T04:20:32.770Z,18.88
2022-09-02T04:25:32.714Z,18.73
2022-09-02T04:30:32.664Z,18.72
2022-09-02T04:35:32.614Z,18.70
2022-09-02T04:40:32.594Z,18.86
2022-09-02T04:45:32.505Z,18.89
2022-09-02T04:50:32.445Z,18.95
2022-09-02T04:55:32.394Z,19.02
2022-09-02T05:00:32.342Z,19.04
2022-09-02T05:05:32.288Z,19.05
2022-09-02T05:10:32.233Z,19.17
2022-09-02T05:15:32.241Z,19.22
2022-09-02T05:20:32.126Z,19.16
2022-09-02T05:25:32.071Z,19.17
2022-09-02T05:30:32.025Z,19.04
2022-09-02T05:35:31.955Z,18.98
2022-09-02T05:40:31.969Z,18.96
2022-09-02T05:45:31.847Z,19.07
2022-09-02T05:50:32.238Z,19.69
2022-09-02T05:55:31.738Z,19.44
2022-09-02T06:00:31.702Z,19.37
2022-09-02T06:05:31.646Z,19.57
2022-09-02T06:10:31.573Z,19.84
2022-09-02T06:15:31.644Z,20.00
2022-09-02T06:20:31.466Z,20.16
2022-09-02T06:25:31.424Z,22.78
2022-09-02T06:30:31.357Z,24.03
2022-09-02T06:35:31.322Z,23.20
2022-09-02T06:40:31.259Z,25.99
2022-09-02T06:45:31.214Z,26.50
2022-09-02T06:50:31.140Z,26.77
2022-09-02T06:55:31.100Z,26.25
2022-09-02T07:00:31.034Z,26.17
2022-09-02T07:05:30.992Z,25.93
2022-09-02T07:10:30.944Z,24.45
2022-09-02T07:15:30.890Z,24.61
2022-09-02T07:20:30.945Z,22.10
2022-09-02T07:25:30.775Z,21.80
2022-09-02T07:30:30.799Z,21.68
2022-09-02T07:35:30.658Z,22.32
2022-09-02T07:40:30.653Z,22.83
2022-09-02T07:45:30.563Z,23.43
2022-09-02T07:50:30.508Z,24.85
2022-09-02T07:55:30.453Z,24.42
2022-09-02T08:00:30.400Z,25.71
2022-09-02T08:05:30.353Z,25.26
2022-09-02T08:10:30.284Z,26.46
2022-09-02T08:15:30.249Z,26.29
2022-09-02T08:20:30.185Z,25.72
2022-09-02T08:25:30.137Z,25.84
2022-09-02T08:30:30.081Z,26.73
2022-09-02T08:35:30.029Z,27.21
2022-09-02T08:40:29.997Z,27.04
2022-09-02T08:45:29.989Z,28.91
2022-09-02T08:50:29.866Z,29.68
2022-09-02T08:55:29.813Z,28.74
2022-09-02T09:00:29.757Z,28.90
2022-09-02T09:05:29.852Z,29.15
2022-09-02T09:10:29.662Z,27.68
2022-09-02T09:15:29.613Z,28.18
2022-09-02T09:20:29.549Z,29.23
2022-09-02T09:25:29.493Z,27.74
2022-09-02T09:30:29.443Z,28.20
2022-09-02T09:35:29.392Z,28.65
2022-09-02T09:40:29.387Z,27.23
2022-09-02T09:45:29.388Z,27.36
2022-09-02T09:50:29.236Z,27.68
2022-09-02T09:55:29.184Z,27.74
2022-09-02T10:00:29.131Z,27.74
2022-09-02T10:05:29.076Z,27.57
2022-09-02T10:10:29.038Z,27.10
2022-09-02T10:15:36.012Z,26.66
2022-09-02T10:20:28.918Z,27.29
2022-09-02T10:25:28.860Z,26.52
2022-09-02T10:30:28.817Z,26.02
2022-09-02T10:35:28.764Z,26.12
2022-09-02T10:40:28.865Z,26.24
2022-09-02T10:45:28.673Z,26.61
2022-09-02T10:50:28.674Z,26.04
2022-09-02T10:55:28.538Z,25.97
2022-09-02T11:00:28.531Z,27.36
2022-09-02T11:05:28.444Z,26.82
2022-09-02T11:10:28.378Z,26.91
2022-09-02T11:15:28.325Z,26.84
2022-09-02T11:20:28.270Z,26.68
2022-09-02T11:25:28.220Z,27.04
2022-09-02T11:30:28.169Z,28.10
2022-09-02T11:35:28.124Z,27.17
2022-09-02T11:40:34.810Z,26.91
2022-09-02T11:45:29.090Z,26.70
2022-09-02T11:50:27.953Z,26.87
2022-09-02T11:55:28.901Z,27.14
2022-09-02T12:00:27.849Z,26.99
2022-09-02T12:05:27.930Z,27.13
2022-09-02T12:10:27.747Z,26.87
2022-09-02T12:15:27.689Z,27.50
2022-09-02T12:20:27.639Z,28.08
2022-09-02T12:25:27.595Z,28.93
2022-09-02T12:30:27.538Z,26.93
2022-09-02T12:35:27.722Z,26.58
2022-09-02T12:40:29.214Z,28.00
2022-09-02T12:45:29.090Z,28.67
2022-09-02T12:50:27.322Z,28.00
2022-09-02T12:55:27.273Z,28.01
2022-09-02T13:00:27.234Z,27.53
2022-09-02T13:05:27.164Z,27.91
2022-09-02T13:10:27.115Z,27.11
2022-09-02T13:15:27.069Z,27.25
2022-09-02T13:20:27.010Z,26.90
2022-09-02T13:25:29.141Z,27.23
2022-09-02T13:30:26.944Z,27.86
2022-09-02T13:35:26.850Z,28.17
2022-09-02T13:40:26.796Z,28.38
2022-09-02T13:45:26.741Z,28.38
2022-09-02T13:50:26.702Z,28.49
2022-09-02T13:55:26.631Z,28.30
2022-09-02T14:00:26.677Z,27.82
2022-09-02T14:05:26.540Z,27.42
2022-09-02T14:10:26.487Z,27.30
2022-09-02T14:15:26.462Z,27.14
2022-09-02T14:20:26.394Z,27.52
2022-09-02T14:25:27.601Z,27.73
2022-09-02T14:30:26.282Z,27.76
2022-09-02T14:35:26.209Z,27.99
2022-09-02T14:40:26.164Z,27.49
2022-09-02T14:45:26.113Z,26.59
2022-09-02T14:50:26.055Z,26.52
2022-09-02T14:55:26.004Z,27.44
2022-09-02T15:00:25.949Z,27.83
2022-09-02T15:05:25.954Z,28.15
2022-09-02T15:10:25.842Z,28.19
2022-09-02T15:15:25.808Z,27.75
2022-09-02T15:20:25.734Z,27.91
2022-09-02T15:25:25.685Z,27.90
2022-09-02T15:30:25.630Z,27.76
2022-09-02T15:35:25.579Z,27.71
2022-09-02T15:40:25.531Z,27.61
2022-09-02T15:45:25.473Z,27.52
2022-09-02T15:50:25.424Z,27.18
2022-09-02T15:55:29.531Z,27.13
2022-09-02T16:00:27.784Z,26.94
2022-09-02T16:05:25.258Z,26.91
2022-09-02T16:10:25.204Z,26.77
2022-09-02T16:15:32.237Z,26.66
2022-09-02T16:20:25.096Z,26.27
2022-09-02T16:25:25.045Z,25.92
2022-09-02T16:30:24.994Z,25.66
2022-09-02T16:35:24.964Z,25.86
2022-09-02T16:40:24.875Z,25.84
2022-09-02T16:45:24.841Z,25.76
2022-09-02T16:50:24.782Z,25.70
2022-09-02T16:55:24.732Z,25.53
2022-09-02T17:00:24.677Z,25.46
2022-09-02T17:05:24.622Z,25.44
2022-09-02T17:10:24.568Z,25.38
2022-09-02T17:15:24.517Z,24.95
2022-09-02T17:20:24.922Z,24.89
2022-09-02T17:25:24.395Z,24.82
2022-09-02T17:30:24.413Z,24.73
2022-09-02T17:35:24.295Z,24.52
2022-09-02T17:40:24.249Z,24.41
2022-09-02T17:45:24.192Z,24.14
2022-09-02T17:50:24.135Z,24.09
2022-09-02T17:55:24.082Z,23.96
2022-09-02T18:00:24.032Z,23.92
2022-09-02T18:05:23.965Z,23.64
2022-09-02T18:10:23.921Z,23.33
2022-09-02T18:15:23.869Z,23.05
2022-09-02T18:20:23.812Z,22.91
2022-09-02T18:25:23.762Z,22.71
2022-09-02T18:30:23.761Z,22.51
2022-09-02T18:35:23.653Z,22.39
2022-09-02T18:40:23.601Z,22.27
2022-09-02T18:45:23.547Z,22.19
2022-09-02T18:50:44.945Z,22.15
2022-09-02T18:55:24.436Z,22.09
2022-09-02T19:00:23.386Z,22.03
2022-09-02T19:05:23.334Z,21.83
2022-09-02T19:10:23.275Z,21.56
2022-09-02T19:15:23.224Z,21.61
2022-09-02T19:20:23.165Z,21.51
2022-09-02T19:25:23.108Z,21.34
2022-09-02T19:30:23.051Z,21.39
2022-09-02T19:35:22.998Z,21.52
2022-09-02T19:40:22.932Z,21.43
2022-09-02T19:45:22.941Z,21.26
2022-09-02T19:50:22.823Z,21.16
2022-09-02T19:55:22.779Z,21.09
2022-09-02T20:00:22.729Z,21.02
2022-09-02T20:05:22.670Z,21.01
2022-09-02T20:10:27.647Z,20.93
2022-09-02T20:15:23.556Z,20.74
2022-09-02T20:20:22.545Z,20.77
2022-09-02T20:25:22.437Z,20.72
2022-09-02T20:30:22.412Z,20.78
2022-09-02T20:35:22.341Z,20.66
2022-09-02T20:40:22.284Z,20.62
2022-09-02T20:45:22.225Z,20.62
2022-09-02T20:50:22.292Z,20.64
2022-09-02T20:55:22.126Z,20.47
2022-09-02T21:00:22.073Z,20.33
2022-09-02T21:05:22.736Z,20.21
2022-09-02T21:10:21.961Z,20.14
2022-09-02T21:15:21.905Z,20.02
2022-09-02T21:20:21.850Z,19.99
2022-09-02T21:25:21.799Z,20.14
2022-09-02T21:30:21.743Z,20.10
2022-09-02T21:35:21.691Z,20.05
2022-09-02T21:40:21.756Z,19.98
2022-09-02T21:45:21.586Z,19.95
2022-09-02T21:50:22.425Z,19.91
2022-09-02T21:55:21.476Z,19.85
2022-09-02T22:00:21.429Z,19.78
2022-09-02T22:05:21.369Z,19.76
2022-09-02T22:10:21.319Z,19.67
2022-09-02T22:15:21.264Z,19.70
2022-09-02T22:20:21.206Z,19.56
2022-09-02T22:25:21.160Z,19.59
2022-09-02T22:30:21.102Z,19.56
2022-09-02T22:35:21.159Z,19.65
2022-09-02T22:40:20.994Z,19.63
2022-09-02T22:45:20.937Z,19.63
2022-09-02T22:50:20.891Z,19.65
2022-09-02T22:55:20.832Z,19.48
2022-09-02T23:00:20.782Z,19.56
2022-09-02T23:05:20.726Z,19.45
2022-09-02T23:10:20.674Z,19.47
2022-09-02T23:15:20.620Z,19.42
2022-09-02T23:20:20.565Z,19.46
2022-09-02T23:25:20.511Z,19.47
